sensor_id;sensor_type;location;lat;lon;timestamp;pressure;altitude;pressure_sealevel;temperature;humidity
47913;BME280;33676;51.006;17.180;2022-10-15T00:01:45;99953.86;;;10.45;94.22
47913;BME280;33676;51.006;17.180;2022-10-15T00:04:13;99946.36;;;10.43;94.31
47913;BME280;33676;51.006;17.180;2022-10-15T00:06:41;99938.65;;;10.39;94.31
47913;BME280;33676;51.006;17.180;2022-10-15T00:09:10;99939.70;;;10.35;94.33
47913;BME280;33676;51.006;17.180;2022-10-15T00:11:38;99935.54;;;10.31;94.42
47913;BME280;33676;51.006;17.180;2022-10-15T00:14:07;99932.20;;;10.27;94.46
47913;BME280;33676;51.006;17.180;2022-10-15T00:16:35;99933.52;;;10.21;94.50
47913;BME280;33676;51.006;17.180;2022-10-15T00:19:04;99930.38;;;10.16;94.87
47913;BME280;33676;51.006;17.180;2022-10-15T00:21:32;99930.54;;;10.12;95.16
47913;BME280;33676;51.006;17.180;2022-10-15T00:24:01;99925.19;;;10.09;95.33
47913;BME280;33676;51.006;17.180;2022-10-15T00:26:29;99923.77;;;10.08;95.55
47913;BME280;33676;51.006;17.180;2022-10-15T00:29:01;99920.61;;;10.06;95.74
47913;BME280;33676;51.006;17.180;2022-10-15T00:31:31;99913.90;;;10.05;95.82
47913;BME280;33676;51.006;17.180;2022-10-15T00:34:00;99909.98;;;10.03;96.04
47913;BME280;33676;51.006;17.180;2022-10-15T00:36:33;99903.23;;;10.03;96.19
47913;BME280;33676;51.006;17.180;2022-10-15T00:39:06;99900.00;;;10.02;96.36
47913;BME280;33676;51.006;17.180;2022-10-15T00:41:43;99895.27;;;10.00;96.38
47913;BME280;33676;51.006;17.180;2022-10-15T00:46:56;99896.19;;;9.97;96.71
47913;BME280;33676;51.006;17.180;2022-10-15T00:49:38;99886.98;;;9.94;96.74
47913;BME280;33676;51.006;17.180;2022-10-15T00:52:23;99885.77;;;9.92;96.81
47913;BME280;33676;51.006;17.180;2022-10-15T00:54:57;99889.91;;;9.88;96.98
47913;BME280;33676;51.006;17.180;2022-10-15T00:57:26;99891.04;;;9.85;97.11
47913;BME280;33676;51.006;17.180;2022-10-15T00:59:57;99891.79;;;9.82;97.26
47913;BME280;33676;51.006;17.180;2022-10-15T01:02:29;99892.10;;;9.81;97.43
47913;BME280;33676;51.006;17.180;2022-10-15T01:04:57;99891.75;;;9.79;97.49
47913;BME280;33676;51.006;17.180;2022-10-15T01:07:25;99890.36;;;9.79;97.94
47913;BME280;33676;51.006;17.180;2022-10-15T01:09:53;99888.96;;;9.79;98.12
47913;BME280;33676;51.006;17.180;2022-10-15T01:12:50;99882.30;;;9.79;98.37
47913;BME280;33676;51.006;17.180;2022-10-15T01:15:40;99881.20;;;9.80;98.87
47913;BME280;33676;51.006;17.180;2022-10-15T01:18:20;99873.52;;;9.82;99.28
47913;BME280;33676;51.006;17.180;2022-10-15T01:21:12;99867.21;;;9.84;99.63
47913;BME280;33676;51.006;17.180;2022-10-15T01:24:08;99862.52;;;9.86;99.87
47913;BME280;33676;51.006;17.180;2022-10-15T01:33:02;99857.95;;;9.90;100.00
47913;BME280;33676;51.006;17.180;2022-10-15T01:35:47;99854.00;;;9.92;100.00
47913;BME280;33676;51.006;17.180;2022-10-15T01:38:29;99842.96;;;9.92;100.00
47913;BME280;33676;51.006;17.180;2022-10-15T01:41:09;99840.52;;;9.92;100.00
47913;BME280;33676;51.006;17.180;2022-10-15T01:44:12;99838.26;;;9.92;100.00
47913;BME280;33676;51.006;17.180;2022-10-15T01:46:54;99842.00;;;9.91;100.00
47913;BME280;33676;51.006;17.180;2022-10-15T01:49:30;99843.89;;;9.91;100.00
47913;BME280;33676;51.006;17.180;2022-10-15T01:52:08;99840.18;;;9.92;100.00
47913;BME280;33676;51.006;17.180;2022-10-15T01:54:40;99831.92;;;9.93;100.00
47913;BME280;33676;51.006;17.180;2022-10-15T01:57:10;99829.52;;;9.92;100.00
47913;BME280;33676;51.006;17.180;2022-10-15T01:59:41;99823.16;;;9.91;100.00
47913;BME280;33676;51.006;17.180;2022-10-15T02:02:10;99814.91;;;9.89;100.00
47913;BME280;33676;51.006;17.180;2022-10-15T02:04:39;99807.77;;;9.87;100.00
47913;BME280;33676;51.006;17.180;2022-10-15T02:10:32;99794.21;;;9.83;100.00
47913;BME280;33676;51.006;17.180;2022-10-15T02:13:31;99801.65;;;9.79;100.00
47913;BME280;33676;51.006;17.180;2022-10-15T02:19:29;99803.23;;;9.75;100.00
47913;BME280;33676;51.006;17.180;2022-10-15T02:22:17;99802.37;;;9.73;100.00
47913;BME280;33676;51.006;17.180;2022-10-15T02:24:54;99810.16;;;9.71;100.00
47913;BME280;33676;51.006;17.180;2022-10-15T02:27:26;99803.95;;;9.70;100.00
47913;BME280;33676;51.006;17.180;2022-10-15T02:29:56;99795.84;;;9.69;100.00
47913;BME280;33676;51.006;17.180;2022-10-15T02:32:26;99792.71;;;9.67;100.00
47913;BME280;33676;51.006;17.180;2022-10-15T02:34:56;99786.93;;;9.65;100.00
47913;BME280;33676;51.006;17.180;2022-10-15T02:37:26;99785.02;;;9.60;100.00
47913;BME280;33676;51.006;17.180;2022-10-15T02:39:56;99787.05;;;9.57;99.95
47913;BME280;33676;51.006;17.180;2022-10-15T02:42:24;99784.92;;;9.53;99.79
47913;BME280;33676;51.006;17.180;2022-10-15T02:44:53;99781.16;;;9.48;99.61
47913;BME280;33676;51.006;17.180;2022-10-15T02:47:21;99772.06;;;9.44;99.56
47913;BME280;33676;51.006;17.180;2022-10-15T02:49:50;99765.13;;;9.42;99.77
47913;BME280;33676;51.006;17.180;2022-10-15T02:52:18;99769.79;;;9.40;99.94
47913;BME280;33676;51.006;17.180;2022-10-15T02:54:46;99771.65;;;9.39;100.00
47913;BME280;33676;51.006;17.180;2022-10-15T02:57:14;99768.36;;;9.38;100.00
47913;BME280;33676;51.006;17.180;2022-10-15T02:59:43;99767.92;;;9.37;100.00
47913;BME280;33676;51.006;17.180;2022-10-15T03:02:11;99767.40;;;9.37;100.00
47913;BME280;33676;51.006;17.180;2022-10-15T03:04:45;99772.18;;;9.36;100.00
47913;BME280;33676;51.006;17.180;2022-10-15T03:07:13;99775.14;;;9.37;100.00
47913;BME280;33676;51.006;17.180;2022-10-15T03:09:42;99766.48;;;9.38;100.00
47913;BME280;33676;51.006;17.180;2022-10-15T03:12:10;99760.66;;;9.39;100.00
47913;BME280;33676;51.006;17.180;2022-10-15T03:14:38;99766.27;;;9.40;100.00
47913;BME280;33676;51.006;17.180;2022-10-15T03:17:06;99763.58;;;9.41;100.00
47913;BME280;33676;51.006;17.180;2022-10-15T03:19:35;99752.66;;;9.43;100.00
47913;BME280;33676;51.006;17.180;2022-10-15T03:22:03;99738.63;;;9.44;100.00
47913;BME280;33676;51.006;17.180;2022-10-15T03:24:31;99735.48;;;9.44;100.00
47913;BME280;33676;51.006;17.180;2022-10-15T03:26:59;99738.80;;;9.43;100.00
47913;BME280;33676;51.006;17.180;2022-10-15T03:29:28;99740.21;;;9.43;100.00
47913;BME280;33676;51.006;17.180;2022-10-15T03:31:56;99742.11;;;9.43;100.00
47913;BME280;33676;51.006;17.180;2022-10-15T03:34:24;99739.14;;;9.44;100.00
47913;BME280;33676;51.006;17.180;2022-10-15T03:36:52;99737.49;;;9.45;100.00
47913;BME280;33676;51.006;17.180;2022-10-15T03:39:21;99733.45;;;9.45;100.00
47913;BME280;33676;51.006;17.180;2022-10-15T03:41:52;99733.04;;;9.46;100.00
47913;BME280;33676;51.006;17.180;2022-10-15T03:44:20;99737.98;;;9.47;100.00
47913;BME280;33676;51.006;17.180;2022-10-15T03:46:49;99736.14;;;9.48;100.00
47913;BME280;33676;51.006;17.180;2022-10-15T03:49:17;99734.45;;;9.50;100.00
47913;BME280;33676;51.006;17.180;2022-10-15T03:51:45;99734.23;;;9.52;100.00
47913;BME280;33676;51.006;17.180;2022-10-15T03:54:13;99728.79;;;9.55;100.00
47913;BME280;33676;51.006;17.180;2022-10-15T03:56:42;99724.81;;;9.56;100.00
47913;BME280;33676;51.006;17.180;2022-10-15T03:59:10;99722.88;;;9.59;100.00
47913;BME280;33676;51.006;17.180;2022-10-15T04:01:38;99723.22;;;9.61;100.00
47913;BME280;33676;51.006;17.180;2022-10-15T04:04:06;99723.48;;;9.62;100.00
47913;BME280;33676;51.006;17.180;2022-10-15T04:06:35;99716.77;;;9.63;100.00
47913;BME280;33676;51.006;17.180;2022-10-15T04:09:03;99718.40;;;9.65;100.00
47913;BME280;33676;51.006;17.180;2022-10-15T04:11:32;99720.84;;;9.67;100.00
47913;BME280;33676;51.006;17.180;2022-10-15T04:14:00;99712.45;;;9.69;100.00
47913;BME280;33676;51.006;17.180;2022-10-15T04:16:28;99710.92;;;9.70;100.00
47913;BME280;33676;51.006;17.180;2022-10-15T04:18:57;99712.01;;;9.72;100.00
47913;BME280;33676;51.006;17.180;2022-10-15T04:21:26;99714.83;;;9.74;100.00
47913;BME280;33676;51.006;17.180;2022-10-15T04:23:54;99718.48;;;9.76;100.00
47913;BME280;33676;51.006;17.180;2022-10-15T04:26:22;99714.52;;;9.77;100.00
47913;BME280;33676;51.006;17.180;2022-10-15T04:28:50;99709.69;;;9.79;100.00
47913;BME280;33676;51.006;17.180;2022-10-15T04:31:18;99703.94;;;9.81;100.00
47913;BME280;33676;51.006;17.180;2022-10-15T04:33:48;99699.88;;;9.83;100.00
47913;BME280;33676;51.006;17.180;2022-10-15T04:36:16;99691.42;;;9.86;100.00
47913;BME280;33676;51.006;17.180;2022-10-15T04:38:49;99692.55;;;9.89;100.00
47913;BME280;33676;51.006;17.180;2022-10-15T04:41:17;99693.39;;;9.91;100.00
47913;BME280;33676;51.006;17.180;2022-10-15T04:43:46;99695.39;;;9.95;100.00
47913;BME280;33676;51.006;17.180;2022-10-15T04:46:14;99701.31;;;9.99;100.00
47913;BME280;33676;51.006;17.180;2022-10-15T04:48:42;99708.05;;;10.02;100.00
47913;BME280;33676;51.006;17.180;2022-10-15T04:53:42;99701.92;;;10.11;100.00
47913;BME280;33676;51.006;17.180;2022-10-15T04:56:14;99703.99;;;10.15;100.00
47913;BME280;33676;51.006;17.180;2022-10-15T04:58:46;99701.92;;;10.19;100.00
47913;BME280;33676;51.006;17.180;2022-10-15T05:01:19;99701.45;;;10.22;100.00
47913;BME280;33676;51.006;17.180;2022-10-15T05:03:48;99697.80;;;10.26;100.00
47913;BME280;33676;51.006;17.180;2022-10-15T05:06:20;99695.44;;;10.31;100.00
47913;BME280;33676;51.006;17.180;2022-10-15T05:08:50;99690.94;;;10.35;100.00
47913;BME280;33676;51.006;17.180;2022-10-15T05:11:25;99691.33;;;10.40;100.00
47913;BME280;33676;51.006;17.180;2022-10-15T05:13:55;99695.19;;;10.44;100.00
47913;BME280;33676;51.006;17.180;2022-10-15T05:16:27;99699.31;;;10.49;100.00
47913;BME280;33676;51.006;17.180;2022-10-15T05:19:13;99699.05;;;10.54;100.00
47913;BME280;33676;51.006;17.180;2022-10-15T05:21:43;99700.83;;;10.59;100.00
47913;BME280;33676;51.006;17.180;2022-10-15T05:24:12;99702.43;;;10.65;100.00
47913;BME280;33676;51.006;17.180;2022-10-15T05:26:40;99699.23;;;10.70;100.00
47913;BME280;33676;51.006;17.180;2022-10-15T05:29:08;99695.34;;;10.75;100.00
47913;BME280;33676;51.006;17.180;2022-10-15T05:31:36;99697.73;;;10.79;100.00
47913;BME280;33676;51.006;17.180;2022-10-15T05:34:07;99698.32;;;10.84;100.00
47913;BME280;33676;51.006;17.180;2022-10-15T05:36:35;99692.28;;;10.89;100.00
47913;BME280;33676;51.006;17.180;2022-10-15T05:39:04;99686.66;;;10.93;100.00
47913;BME280;33676;51.006;17.180;2022-10-15T05:41:37;99684.89;;;10.97;100.00
47913;BME280;33676;51.006;17.180;2022-10-15T05:44:05;99682.70;;;11.01;100.00
47913;BME280;33676;51.006;17.180;2022-10-15T05:46:34;99682.75;;;11.04;100.00
47913;BME280;33676;51.006;17.180;2022-10-15T05:49:02;99680.00;;;11.07;100.00
47913;BME280;33676;51.006;17.180;2022-10-15T05:51:30;99681.58;;;11.11;100.00
47913;BME280;33676;51.006;17.180;2022-10-15T05:53:58;99682.77;;;11.15;100.00
47913;BME280;33676;51.006;17.180;2022-10-15T05:56:27;99685.64;;;11.20;100.00
47913;BME280;33676;51.006;17.180;2022-10-15T05:58:56;99683.77;;;11.23;100.00
47913;BME280;33676;51.006;17.180;2022-10-15T06:01:24;99688.60;;;11.28;100.00
47913;BME280;33676;51.006;17.180;2022-10-15T06:03:52;99691.52;;;11.33;100.00
47913;BME280;33676;51.006;17.180;2022-10-15T06:06:24;99690.31;;;11.36;100.00
47913;BME280;33676;51.006;17.180;2022-10-15T06:08:54;99690.59;;;11.41;100.00
47913;BME280;33676;51.006;17.180;2022-10-15T06:11:22;99693.06;;;11.44;100.00
47913;BME280;33676;51.006;17.180;2022-10-15T06:13:51;99700.97;;;11.50;100.00
47913;BME280;33676;51.006;17.180;2022-10-15T06:16:19;99702.94;;;11.53;100.00
47913;BME280;33676;51.006;17.180;2022-10-15T06:18:51;99704.40;;;11.58;100.00
47913;BME280;33676;51.006;17.180;2022-10-15T06:21:20;99705.99;;;11.62;100.00
47913;BME280;33676;51.006;17.180;2022-10-15T06:23:49;99712.44;;;11.66;100.00
47913;BME280;33676;51.006;17.180;2022-10-15T06:26:17;99716.36;;;11.71;100.00
47913;BME280;33676;51.006;17.180;2022-10-15T06:28:45;99719.36;;;11.76;100.00
47913;BME280;33676;51.006;17.180;2022-10-15T06:31:14;99722.96;;;11.81;100.00
47913;BME280;33676;51.006;17.180;2022-10-15T06:33:42;99718.58;;;11.87;100.00
47913;BME280;33676;51.006;17.180;2022-10-15T06:36:11;99720.80;;;11.91;100.00
47913;BME280;33676;51.006;17.180;2022-10-15T06:38:40;99712.95;;;11.97;100.00
47913;BME280;33676;51.006;17.180;2022-10-15T06:41:11;99716.31;;;12.02;100.00
47913;BME280;33676;51.006;17.180;2022-10-15T06:43:39;99718.40;;;12.06;100.00
47913;BME280;33676;51.006;17.180;2022-10-15T06:46:09;99726.08;;;12.10;100.00
47913;BME280;33676;51.006;17.180;2022-10-15T06:48:38;99722.79;;;12.15;100.00
47913;BME280;33676;51.006;17.180;2022-10-15T06:51:06;99727.14;;;12.19;100.00
47913;BME280;33676;51.006;17.180;2022-10-15T06:53:36;99732.66;;;12.23;100.00
47913;BME280;33676;51.006;17.180;2022-10-15T06:56:07;99730.05;;;12.29;100.00
47913;BME280;33676;51.006;17.180;2022-10-15T06:58:35;99729.67;;;12.35;100.00
47913;BME280;33676;51.006;17.180;2022-10-15T07:01:05;99735.23;;;12.43;100.00
47913;BME280;33676;51.006;17.180;2022-10-15T07:03:33;99732.80;;;12.50;100.00
47913;BME280;33676;51.006;17.180;2022-10-15T07:06:05;99735.64;;;12.59;100.00
47913;BME280;33676;51.006;17.180;2022-10-15T07:08:35;99733.82;;;12.69;100.00
47913;BME280;33676;51.006;17.180;2022-10-15T07:11:06;99734.34;;;12.82;100.00
47913;BME280;33676;51.006;17.180;2022-10-15T07:13:37;99733.08;;;12.95;100.00
47913;BME280;33676;51.006;17.180;2022-10-15T07:16:09;99734.46;;;13.09;100.00
47913;BME280;33676;51.006;17.180;2022-10-15T07:18:38;99737.73;;;13.22;100.00
47913;BME280;33676;51.006;17.180;2022-10-15T07:21:07;99744.02;;;13.37;100.00
47913;BME280;33676;51.006;17.180;2022-10-15T07:23:41;99750.24;;;13.52;100.00
47913;BME280;33676;51.006;17.180;2022-10-15T07:26:09;99749.64;;;13.67;100.00
47913;BME280;33676;51.006;17.180;2022-10-15T07:28:37;99755.53;;;13.82;100.00
47913;BME280;33676;51.006;17.180;2022-10-15T07:31:06;99756.36;;;13.95;100.00
47913;BME280;33676;51.006;17.180;2022-10-15T07:33:35;99760.63;;;14.04;100.00
47913;BME280;33676;51.006;17.180;2022-10-15T07:36:07;99765.76;;;14.13;100.00
47913;BME280;33676;51.006;17.180;2022-10-15T07:38:35;99768.13;;;14.22;100.00
47913;BME280;33676;51.006;17.180;2022-10-15T07:41:05;99762.65;;;14.32;100.00
47913;BME280;33676;51.006;17.180;2022-10-15T07:43:35;99762.64;;;14.42;100.00
47913;BME280;33676;51.006;17.180;2022-10-15T07:46:04;99768.27;;;14.52;100.00
47913;BME280;33676;51.006;17.180;2022-10-15T07:48:33;99769.16;;;14.62;100.00
47913;BME280;33676;51.006;17.180;2022-10-15T07:51:05;99768.45;;;14.72;100.00
47913;BME280;33676;51.006;17.180;2022-10-15T07:53:34;99764.41;;;14.83;100.00
47913;BME280;33676;51.006;17.180;2022-10-15T07:56:10;99762.52;;;14.91;100.00
47913;BME280;33676;51.006;17.180;2022-10-15T07:58:40;99765.59;;;14.98;100.00
47913;BME280;33676;51.006;17.180;2022-10-15T08:01:10;99766.23;;;15.05;100.00
47913;BME280;33676;51.006;17.180;2022-10-15T08:03:38;99764.91;;;15.14;100.00
47913;BME280;33676;51.006;17.180;2022-10-15T08:06:06;99764.48;;;15.25;100.00
47913;BME280;33676;51.006;17.180;2022-10-15T08:08:35;99761.27;;;15.36;100.00
47913;BME280;33676;51.006;17.180;2022-10-15T08:11:11;99759.08;;;15.46;100.00
47913;BME280;33676;51.006;17.180;2022-10-15T08:13:41;99759.27;;;15.56;100.00
47913;BME280;33676;51.006;17.180;2022-10-15T08:16:12;99762.05;;;15.68;100.00
47913;BME280;33676;51.006;17.180;2022-10-15T08:18:41;99756.77;;;15.77;100.00
47913;BME280;33676;51.006;17.180;2022-10-15T08:21:10;99757.50;;;15.88;100.00
47913;BME280;33676;51.006;17.180;2022-10-15T08:23:39;99755.51;;;16.00;100.00
47913;BME280;33676;51.006;17.180;2022-10-15T08:26:07;99756.41;;;16.11;100.00
47913;BME280;33676;51.006;17.180;2022-10-15T08:28:36;99752.35;;;16.21;100.00
47913;BME280;33676;51.006;17.180;2022-10-15T08:31:05;99752.66;;;16.33;100.00
47913;BME280;33676;51.006;17.180;2022-10-15T08:33:35;99753.01;;;16.41;100.00
47913;BME280;33676;51.006;17.180;2022-10-15T08:36:05;99753.77;;;16.48;100.00
47913;BME280;33676;51.006;17.180;2022-10-15T08:38:34;99760.11;;;16.56;100.00
47913;BME280;33676;51.006;17.180;2022-10-15T08:41:16;99761.73;;;16.65;100.00
47913;BME280;33676;51.006;17.180;2022-10-15T08:43:47;99765.95;;;16.72;99.97
47913;BME280;33676;51.006;17.180;2022-10-15T08:46:22;99767.90;;;16.75;99.73
47913;BME280;33676;51.006;17.180;2022-10-15T08:48:54;99772.27;;;16.80;99.78
47913;BME280;33676;51.006;17.180;2022-10-15T08:51:29;99773.55;;;16.82;99.50
47913;BME280;33676;51.006;17.180;2022-10-15T08:54:02;99776.66;;;16.86;99.38
47913;BME280;33676;51.006;17.180;2022-10-15T08:56:42;99779.09;;;16.90;99.21
47913;BME280;33676;51.006;17.180;2022-10-15T08:59:29;99777.13;;;16.92;98.90
47913;BME280;33676;51.006;17.180;2022-10-15T09:02:12;99780.10;;;16.95;99.07
47913;BME280;33676;51.006;17.180;2022-10-15T09:04:56;99781.07;;;17.01;99.24
47913;BME280;33676;51.006;17.180;2022-10-15T09:08:00;99777.17;;;17.05;99.17
47913;BME280;33676;51.006;17.180;2022-10-15T09:10:42;99774.17;;;17.10;99.06
47913;BME280;33676;51.006;17.180;2022-10-15T09:13:55;99774.90;;;17.10;98.61
47913;BME280;33676;51.006;17.180;2022-10-15T09:16:31;99777.95;;;17.09;98.36
47913;BME280;33676;51.006;17.180;2022-10-15T09:19:04;99778.08;;;17.08;98.04
47913;BME280;33676;51.006;17.180;2022-10-15T09:21:34;99779.73;;;17.09;98.15
47913;BME280;33676;51.006;17.180;2022-10-15T09:24:03;99778.77;;;17.11;98.30
47913;BME280;33676;51.006;17.180;2022-10-15T09:29:49;99788.42;;;17.16;98.21
47913;BME280;33676;51.006;17.180;2022-10-15T09:42:39;99791.84;;;17.20;98.22
47913;BME280;33676;51.006;17.180;2022-10-15T09:45:14;99793.84;;;17.31;98.66
47913;BME280;33676;51.006;17.180;2022-10-15T09:47:43;99793.89;;;17.40;98.80
47913;BME280;33676;51.006;17.180;2022-10-15T09:50:13;99787.22;;;17.47;98.71
47913;BME280;33676;51.006;17.180;2022-10-15T09:55:51;99791.63;;;17.66;98.59
47913;BME280;33676;51.006;17.180;2022-10-15T09:58:27;99796.09;;;17.70;98.42
47913;BME280;33676;51.006;17.180;2022-10-15T10:01:03;99795.70;;;17.73;98.21
47913;BME280;33676;51.006;17.180;2022-10-15T10:03:34;99796.92;;;17.78;98.19
47913;BME280;33676;51.006;17.180;2022-10-15T10:09:03;99799.17;;;17.88;97.81
47913;BME280;33676;51.006;17.180;2022-10-15T10:11:50;99799.81;;;17.94;97.61
47913;BME280;33676;51.006;17.180;2022-10-15T10:14:25;99800.29;;;18.02;97.75
47913;BME280;33676;51.006;17.180;2022-10-15T10:17:16;99801.55;;;18.09;97.70
47913;BME280;33676;51.006;17.180;2022-10-15T10:20:03;99807.05;;;18.15;97.28
47913;BME280;33676;51.006;17.180;2022-10-15T10:22:49;99806.73;;;18.16;96.86
47913;BME280;33676;51.006;17.180;2022-10-15T10:28:04;99804.42;;;18.15;96.32
47913;BME280;33676;51.006;17.180;2022-10-15T10:33:33;99801.80;;;18.21;95.64
47913;BME280;33676;51.006;17.180;2022-10-15T10:36:05;99804.84;;;18.28;95.71
47913;BME280;33676;51.006;17.180;2022-10-15T10:38:37;99808.95;;;18.32;95.22
47913;BME280;33676;51.006;17.180;2022-10-15T10:41:10;99805.35;;;18.37;94.93
47913;BME280;33676;51.006;17.180;2022-10-15T10:43:54;99800.45;;;18.45;94.75
47913;BME280;33676;51.006;17.180;2022-10-15T10:46:23;99801.30;;;18.56;94.76
47913;BME280;33676;51.006;17.180;2022-10-15T10:48:53;99803.84;;;18.65;94.19
47913;BME280;33676;51.006;17.180;2022-10-15T10:51:26;99803.46;;;18.74;94.10
47913;BME280;33676;51.006;17.180;2022-10-15T10:54:04;99809.61;;;18.84;93.88
47913;BME280;33676;51.006;17.180;2022-10-15T10:56:40;99813.84;;;18.92;93.49
47913;BME280;33676;51.006;17.180;2022-10-15T10:59:21;99814.19;;;19.03;93.67
47913;BME280;33676;51.006;17.180;2022-10-15T11:01:51;99812.39;;;19.15;93.80
47913;BME280;33676;51.006;17.180;2022-10-15T11:04:32;99807.06;;;19.27;93.43
47913;BME280;33676;51.006;17.180;2022-10-15T11:10:16;99808.64;;;19.47;92.75
47913;BME280;33676;51.006;17.180;2022-10-15T11:19:43;99797.08;;;19.69;91.56
47913;BME280;33676;51.006;17.180;2022-10-15T11:22:55;99788.53;;;19.76;91.05
47913;BME280;33676;51.006;17.180;2022-10-15T11:35:14;99781.01;;;19.91;89.95
47913;BME280;33676;51.006;17.180;2022-10-15T11:38:27;99777.09;;;19.93;89.77
47913;BME280;33676;51.006;17.180;2022-10-15T11:44:31;99769.45;;;19.90;89.14
47913;BME280;33676;51.006;17.180;2022-10-15T11:47:20;99772.30;;;19.93;88.90
47913;BME280;33676;51.006;17.180;2022-10-15T11:50:30;99769.96;;;19.97;88.56
47913;BME280;33676;51.006;17.180;2022-10-15T11:53:42;99765.20;;;20.00;87.98
47913;BME280;33676;51.006;17.180;2022-10-15T11:56:29;99763.87;;;19.98;87.59
47913;BME280;33676;51.006;17.180;2022-10-15T12:01:42;99765.78;;;19.83;86.97
47913;BME280;33676;51.006;17.180;2022-10-15T12:04:29;99763.96;;;19.74;86.89
47913;BME280;33676;51.006;17.180;2022-10-15T12:07:04;99765.56;;;19.69;86.81
47913;BME280;33676;51.006;17.180;2022-10-15T12:09:39;99763.79;;;19.67;86.74
47913;BME280;33676;51.006;17.180;2022-10-15T12:12:58;99763.16;;;19.71;86.83
47913;BME280;33676;51.006;17.180;2022-10-15T12:16:02;99767.98;;;19.76;86.95
47913;BME280;33676;51.006;17.180;2022-10-15T12:18:44;99770.51;;;19.80;86.94
47913;BME280;33676;51.006;17.180;2022-10-15T12:30:10;99773.36;;;19.91;86.61
47913;BME280;33676;51.006;17.180;2022-10-15T12:32:45;99771.34;;;19.95;86.35
47913;BME280;33676;51.006;17.180;2022-10-15T12:37:46;99768.30;;;20.09;86.26
47913;BME280;33676;51.006;17.180;2022-10-15T12:42:58;99763.00;;;20.32;86.15
47913;BME280;33676;51.006;17.180;2022-10-15T12:45:35;99757.97;;;20.34;85.88
47913;BME280;33676;51.006;17.180;2022-10-15T12:50:36;99758.06;;;20.20;84.97
47913;BME280;33676;51.006;17.180;2022-10-15T12:53:29;99756.45;;;20.13;84.85
47913;BME280;33676;51.006;17.180;2022-10-15T12:58:49;99753.44;;;20.10;84.91
47913;BME280;33676;51.006;17.180;2022-10-15T13:11:45;99756.86;;;19.91;84.10
47913;BME280;33676;51.006;17.180;2022-10-15T13:14:41;99759.03;;;19.77;84.24
47913;BME280;33676;51.006;17.180;2022-10-15T13:17:20;99765.67;;;19.67;84.35
47913;BME280;33676;51.006;17.180;2022-10-15T13:20:02;99772.15;;;19.53;84.06
47913;BME280;33676;51.006;17.180;2022-10-15T13:22:34;99771.11;;;19.43;84.25
47913;BME280;33676;51.006;17.180;2022-10-15T13:25:13;99767.74;;;19.34;84.33
47913;BME280;33676;51.006;17.180;2022-10-15T13:27:42;99763.86;;;19.25;84.45
47913;BME280;33676;51.006;17.180;2022-10-15T13:30:14;99765.48;;;19.22;84.59
47913;BME280;33676;51.006;17.180;2022-10-15T13:32:54;99763.04;;;19.16;84.59
47913;BME280;33676;51.006;17.180;2022-10-15T13:35:28;99763.27;;;19.11;84.69
47913;BME280;33676;51.006;17.180;2022-10-15T13:38:00;99766.32;;;19.04;84.78
47913;BME280;33676;51.006;17.180;2022-10-15T13:40:30;99769.67;;;18.94;84.68
47913;BME280;33676;51.006;17.180;2022-10-15T13:43:12;99771.08;;;18.82;84.65
47913;BME280;33676;51.006;17.180;2022-10-15T13:45:52;99777.32;;;18.72;84.68
47913;BME280;33676;51.006;17.180;2022-10-15T13:48:28;99779.45;;;18.65;85.13
47913;BME280;33676;51.006;17.180;2022-10-15T13:51:02;99774.83;;;18.60;85.43
47913;BME280;33676;51.006;17.180;2022-10-15T13:53:35;99779.19;;;18.54;85.75
47913;BME280;33676;51.006;17.180;2022-10-15T13:56:26;99779.75;;;18.48;85.97
47913;BME280;33676;51.006;17.180;2022-10-15T13:58:56;99779.58;;;18.39;85.73
47913;BME280;33676;51.006;17.180;2022-10-15T14:01:27;99778.73;;;18.29;85.94
47913;BME280;33676;51.006;17.180;2022-10-15T14:03:58;99784.23;;;18.21;86.20
47913;BME280;33676;51.006;17.180;2022-10-15T14:06:30;99788.07;;;18.14;86.41
47913;BME280;33676;51.006;17.180;2022-10-15T14:11:40;99796.33;;;18.00;86.68
47913;BME280;33676;51.006;17.180;2022-10-15T14:14:48;99794.13;;;17.93;86.91
47913;BME280;33676;51.006;17.180;2022-10-15T14:19:52;99794.05;;;17.76;87.40
47913;BME280;33676;51.006;17.180;2022-10-15T14:22:41;99796.23;;;17.68;87.68
47913;BME280;33676;51.006;17.180;2022-10-15T14:25:10;99797.67;;;17.61;87.95
47913;BME280;33676;51.006;17.180;2022-10-15T14:27:44;99799.02;;;17.53;88.14
47913;BME280;33676;51.006;17.180;2022-10-15T14:30:40;99797.77;;;17.46;88.31
47913;BME280;33676;51.006;17.180;2022-10-15T14:33:41;99798.30;;;17.40;88.66
47913;BME280;33676;51.006;17.180;2022-10-15T14:36:13;99798.48;;;17.35;88.90
47913;BME280;33676;51.006;17.180;2022-10-15T14:38:49;99802.19;;;17.31;88.97
47913;BME280;33676;51.006;17.180;2022-10-15T14:41:30;99798.20;;;17.27;89.15
47913;BME280;33676;51.006;17.180;2022-10-15T14:44:02;99798.52;;;17.24;89.26
47913;BME280;33676;51.006;17.180;2022-10-15T14:46:44;99798.98;;;17.23;89.43
47913;BME280;33676;51.006;17.180;2022-10-15T14:49:26;99798.00;;;17.21;89.52
47913;BME280;33676;51.006;17.180;2022-10-15T14:52:05;99796.86;;;17.17;89.75
47913;BME280;33676;51.006;17.180;2022-10-15T14:54:40;99794.25;;;17.12;89.92
47913;BME280;33676;51.006;17.180;2022-10-15T14:57:24;99790.45;;;17.05;89.94
47913;BME280;33676;51.006;17.180;2022-10-15T14:59:55;99788.75;;;17.00;90.26
47913;BME280;33676;51.006;17.180;2022-10-15T15:02:26;99788.64;;;16.96;90.42
47913;BME280;33676;51.006;17.180;2022-10-15T15:05:20;99792.78;;;16.94;90.54
47913;BME280;33676;51.006;17.180;2022-10-15T15:07:49;99793.81;;;16.92;90.78